createdAt,value
2017-08-13T21:43:14.381Z,53.80
2017-08-13T21:45:41.858Z,51.50
2017-08-13T21:48:09.473Z,55.30
2017-08-13T21:50:36.949Z,58.50
2017-08-13T21:53:05.180Z,62.80
2017-08-13T21:55:32.658Z,62.80
2017-08-13T21:58:00.124Z,62.80
2017-08-13T22:00:27.618Z,63.90
2017-08-13T22:02:55.102Z,64.90
2017-08-13T22:05:22.557Z,65.50
2017-08-13T22:07:50.553Z,65.20
2017-08-13T22:10:18.011Z,65.70
2017-08-13T22:12:45.504Z,66.20
2017-08-13T22:15:13.027Z,66.40
2017-08-13T22:17:40.500Z,66.80
2017-08-13T22:20:08.746Z,67.30
2017-08-13T22:22:36.225Z,67.80
2017-08-13T22:25:03.715Z,67.70
2017-08-13T22:27:31.193Z,68.60
2017-08-13T22:29:58.696Z,67.70
2017-08-13T22:32:26.269Z,67.80
2017-08-13T22:34:55.377Z,68.20
2017-08-13T22:37:22.845Z,68.10
2017-08-13T22:39:50.312Z,68.30
2017-08-13T22:42:17.776Z,68.40
2017-08-13T22:44:45.242Z,68.90
2017-08-13T22:47:12.717Z,68.40
2017-08-13T22:49:40.181Z,68.90
2017-08-13T22:52:07.654Z,69.50
2017-08-13T22:54:36.009Z,70.80
2017-08-13T22:57:03.476Z,70.00
2017-08-13T22:59:30.948Z,70.20
2017-08-13T23:01:59.167Z,70.40
2017-08-13T23:04:26.657Z,70.40
2017-08-13T23:06:54.143Z,69.80
2017-08-13T23:09:22.366Z,70.30
2017-08-13T23:11:49.935Z,70.30
2017-08-13T23:14:17.392Z,70.50
2017-08-13T23:16:44.873Z,70.60
2017-08-13T23:19:12.337Z,70.90
2017-08-13T23:21:40.557Z,71.10
2017-08-13T23:24:09.168Z,70.90
2017-08-13T23:26:36.630Z,71.10
2017-08-13T23:29:04.107Z,71.40
2017-08-13T23:31:32.333Z,71.30
2017-08-13T23:33:59.789Z,71.20
2017-08-13T23:36:27.400Z,71.40
2017-08-13T23:38:55.630Z,71.90
2017-08-13T23:41:23.099Z,71.80
2017-08-13T23:43:50.564Z,71.70
2017-08-13T23:46:18.174Z,72.90
2017-08-13T23:48:45.666Z,72.10
2017-08-13T23:51:13.141Z,72.10
2017-08-13T23:53:40.612Z,72.60
2017-08-13T23:56:08.069Z,72.70
2017-08-13T23:58:36.311Z,72.70
